Terminal Aerodrome Forecast
Issued by NWS

Home | Current Version | Previous Version | Text Only | Print | Product List | Glossary Off
Versions: 1 2 3 4 5 6 7 8 9 10 11 12 13 14 15 16 17 18 19 20

000
FTUS43 KGRB 242000 AAA
TAFAUW
TAF AMD
KAUW 242004Z 2420/2518 30020G30KT P6SM SKC
     FM250100 31012KT P6SM SKC
     FM250500 31006KT P6SM SCT200
     FM251500 34006KT P6SM BKN150=

USA.gov is the U.S. government's official web portal to all federal, state and local government web resources and services.